Time;durP1;ratioP1;P1;durP2;ratioP2;P2;SDS_P1;SDS_P2;PMS_P1;PMS_P2;Temp;Humidity;BMP_temperature;BMP_pressure;BME280_temperature;BME280_humidity;BME280_pressure;Samples;Min_cycle;Max_cycle;Signal;HPM_P1;HPM_P2
2022/10/24 00:00:35;;;;;;;1.13;0.77;;;;;;;;;;5091324;28;20020;-85
2022/10/24 00:03:00;;;;;;;4.30;1.15;;;;;;;;;;5091438;28;20039;-86
2022/10/24 00:05:26;;;;;;;1.73;1.20;;;;;;;;;;5092186;28;20496;-86
2022/10/24 00:07:51;;;;;;;1.10;0.73;;;;;;;;;;5092665;28;20046;-86
2022/10/24 00:10:18;;;;;;;2.53;1.05;;;;;;;;;;5091206;28;20020;-86
2022/10/24 00:12:44;;;;;;;3.53;1.13;;;;;;;;;;5092572;28;20391;-86
2022/10/24 00:15:09;;;;;;;1.35;0.95;;;;;;;;;;5092619;28;20016;-87
2022/10/24 00:17:35;;;;;;;1.67;1.13;;;;;;;;;;5092249;28;20383;-86
2022/10/24 00:20:02;;;;;;;3.90;1.48;;;;;;;;;;5091295;28;20055;-86
2022/10/24 00:22:27;;;;;;;0.65;0.65;;;;;;;;;;5091040;28;20068;-86
2022/10/24 00:24:53;;;;;;;1.38;0.80;;;;;;;;;;5088778;28;20491;-85
2022/10/24 00:27:18;;;;;;;1.60;0.90;;;;;;;;;;5091391;28;20027;-86
2022/10/24 00:29:44;;;;;;;1.10;1.00;;;;;;;;;;5091149;28;20076;-86
2022/10/24 00:32:10;;;;;;;1.40;1.00;;;;;;;;;;5091094;28;20403;-85
2022/10/24 00:34:36;;;;;;;2.15;1.10;;;;;;;;;;5092311;28;20023;-85
2022/10/24 00:37:02;;;;;;;1.23;0.70;;;;;;;;;;5089820;28;20020;-87
2022/10/24 00:39:27;;;;;;;4.03;1.10;;;;;;;;;;5092101;28;20039;-86
2022/10/24 00:41:57;;;;;;;1.88;1.23;;;;;;;;;;5090264;28;20031;-87
2022/10/24 00:44:27;;;;;;;0.52;0.52;;;;;;;;;;5090983;28;20035;-85
2022/10/24 00:47:03;;;;;;;;;;;;;;;;;;5091171;28;20035;-87
2022/10/24 00:49:48;;;;;;;1.92;1.30;;;;;;;;;;5090734;28;19919;-85
2022/10/24 00:52:19;;;;;;;3.30;0.93;;;;;;;;;;5091583;28;20026;-86
2022/10/24 00:54:45;;;;;;;1.38;0.85;;;;;;;;;;5090571;28;20028;-87
2022/10/24 00:57:23;;;;;;;0.68;0.55;;;;;;;;;;5090665;28;20024;-87
2022/10/24 00:59:53;;;;;;;0.93;0.80;;;;;;;;;;5089212;28;20083;-85
2022/10/24 01:02:20;;;;;;;3.75;1.23;;;;;;;;;;5089371;28;20035;-84
2022/10/24 01:04:47;;;;;;;1.52;0.98;;;;;;;;;;5088344;28;20043;-87
2022/10/24 01:07:53;;;;;;;2.40;0.98;;;;;;;;;;5090893;28;20486;-85
2022/10/24 01:10:25;;;;;;;1.80;0.98;;;;;;;;;;5075131;28;20032;-87
2022/10/24 01:13:08;;;;;;;1.95;1.20;;;;;;;;;;5089222;28;20139;-86
2022/10/24 01:15:59;;;;;;;1.30;0.73;;;;;;;;;;5085701;28;20032;-85
2022/10/24 01:18:34;;;;;;;4.15;0.80;;;;;;;;;;5064313;28;20040;-87
2022/10/24 01:21:12;;;;;;;1.30;1.17;;;;;;;;;;5088681;28;20093;-87
2022/10/24 01:23:37;;;;;;;1.90;1.10;;;;;;;;;;5088299;28;20111;-84
2022/10/24 01:26:42;;;;;;;0.65;0.63;;;;;;;;;;5090096;28;20058;-87
2022/10/24 01:29:10;;;;;;;2.00;1.25;;;;;;;;;;5088911;28;20024;-85
2022/10/24 01:31:42;;;;;;;1.40;0.80;;;;;;;;;;5087433;28;20519;-85
2022/10/24 01:34:24;;;;;;;0.85;0.85;;;;;;;;;;5091368;28;20107;-85
2022/10/24 01:36:58;;;;;;;2.38;1.17;;;;;;;;;;5086070;28;20469;-86
2022/10/24 01:39:27;;;;;;;1.77;1.20;;;;;;;;;;5087465;28;20422;-86
2022/10/24 01:41:56;;;;;;;2.10;1.08;;;;;;;;;;5087565;28;20133;-84
2022/10/24 01:44:32;;;;;;;1.13;0.75;;;;;;;;;;5090889;28;20123;-85
2022/10/24 01:47:03;;;;;;;1.00;0.60;;;;;;;;;;5090942;28;20111;-85
2022/10/24 01:49:33;;;;;;;3.25;1.45;;;;;;;;;;5089835;28;20069;-86
2022/10/24 01:52:02;;;;;;;1.38;0.85;;;;;;;;;;5089824;28;20027;-85
2022/10/24 01:54:29;;;;;;;1.55;0.88;;;;;;;;;;5093561;28;20020;-88
2022/10/24 01:56:55;;;;;;;1.25;0.98;;;;;;;;;;5093009;28;20077;-87
2022/10/24 01:59:29;;;;;;;5.78;1.35;;;;;;;;;;5094716;28;20024;-85
2022/10/24 02:02:05;;;;;;;4.68;1.52;;;;;;;;;;5090033;28;20407;-85
2022/10/24 02:04:32;;;;;;;1.13;1.02;;;;;;;;;;5092896;28;20083;-85
2022/10/24 02:07:01;;;;;;;1.35;0.82;;;;;;;;;;5094863;28;20400;-85
2022/10/24 02:09:27;;;;;;;0.60;0.60;;;;;;;;;;5094798;28;20061;-86
2022/10/24 02:11:56;;;;;;;1.63;1.15;;;;;;;;;;5092986;28;20035;-86
2022/10/24 02:14:30;;;;;;;1.45;1.10;;;;;;;;;;5095036;28;20031;-87
2022/10/24 02:16:55;;;;;;;4.43;1.42;;;;;;;;;;5093518;28;20035;-86
2022/10/24 02:19:21;;;;;;;6.82;2.08;;;;;;;;;;5093480;28;20028;-84
2022/10/24 02:22:03;;;;;;;1.02;0.88;;;;;;;;;;5093488;28;20044;-87
2022/10/24 02:24:54;;;;;;;0.30;0.30;;;;;;;;;;5095071;28;20024;-86
2022/10/24 02:27:40;;;;;;;1.05;0.82;;;;;;;;;;5094154;28;20058;-86
2022/10/24 02:30:09;;;;;;;0.80;0.70;;;;;;;;;;5092679;28;20020;-86
2022/10/24 02:32:39;;;;;;;1.77;0.90;;;;;;;;;;5093604;28;20020;-85
2022/10/24 02:35:07;;;;;;;1.85;1.33;;;;;;;;;;5092605;28;20353;-86
2022/10/24 02:37:35;;;;;;;1.45;1.05;;;;;;;;;;5091083;28;20386;-87
2022/10/24 02:40:04;;;;;;;1.85;1.20;;;;;;;;;;5094458;28;20053;-87
2022/10/24 02:42:31;;;;;;;6.45;1.15;;;;;;;;;;5087930;28;20035;-86
2022/10/24 02:44:59;;;;;;;3.08;0.82;;;;;;;;;;5090939;28;20032;-86
2022/10/24 02:47:27;;;;;;;2.60;1.20;;;;;;;;;;5091098;28;20099;-87
2022/10/24 02:49:53;;;;;;;1.33;1.00;;;;;;;;;;5094179;28;20490;-88
2022/10/24 02:52:19;;;;;;;2.03;1.00;;;;;;;;;;5092875;28;20468;-87
2022/10/24 02:54:45;;;;;;;2.85;1.15;;;;;;;;;;5092986;28;20073;-87
2022/10/24 02:57:12;;;;;;;3.28;1.98;;;;;;;;;;5092437;28;20024;-88
2022/10/24 02:59:37;;;;;;;1.92;1.02;;;;;;;;;;5092302;28;20023;-86
2022/10/24 03:02:03;;;;;;;1.05;0.85;;;;;;;;;;5093104;28;20472;-86
2022/10/24 03:04:28;;;;;;;0.95;0.85;;;;;;;;;;5094575;28;20112;-87
2022/10/24 03:06:54;;;;;;;1.15;0.75;;;;;;;;;;5092677;28;20384;-87
2022/10/24 03:09:19;;;;;;;1.75;1.35;;;;;;;;;;5093507;28;20016;-87
2022/10/24 03:11:45;;;;;;;1.13;1.02;;;;;;;;;;5091015;28;20063;-87
2022/10/24 03:14:10;;;;;;;4.22;1.88;;;;;;;;;;5092323;28;20489;-87
2022/10/24 03:16:37;;;;;;;1.70;0.70;;;;;;;;;;5093714;28;20458;-87
2022/10/24 03:19:02;;;;;;;1.85;1.55;;;;;;;;;;5091595;28;20383;-84
2022/10/24 03:21:28;;;;;;;2.65;1.58;;;;;;;;;;5090658;28;20040;-83
2022/10/24 03:23:53;;;;;;;5.25;1.50;;;;;;;;;;5091777;28;20039;-87
2022/10/24 03:26:18;;;;;;;3.08;1.00;;;;;;;;;;5092027;28;20055;-86
2022/10/24 03:28:44;;;;;;;2.20;1.55;;;;;;;;;;5091843;28;20088;-86
2022/10/24 03:31:09;;;;;;;1.40;1.02;;;;;;;;;;5092915;28;20024;-85
2022/10/24 03:33:35;;;;;;;0.80;0.65;;;;;;;;;;5093138;28;20474;-85
2022/10/24 03:36:00;;;;;;;1.42;1.25;;;;;;;;;;5092427;28;20040;-85
2022/10/24 03:38:26;;;;;;;1.27;0.82;;;;;;;;;;5092908;28;20097;-86
2022/10/24 03:40:51;;;;;;;1.10;0.95;;;;;;;;;;5093330;28;20082;-86
2022/10/24 03:43:17;;;;;;;2.95;1.63;;;;;;;;;;5091732;28;20434;-86
2022/10/24 03:45:43;;;;;;;2.45;0.70;;;;;;;;;;5093269;28;20032;-86
2022/10/24 03:48:09;;;;;;;0.60;0.60;;;;;;;;;;5093262;28;20105;-86
2022/10/24 03:50:35;;;;;;;9.18;1.23;;;;;;;;;;5093015;28;20486;-85
2022/10/24 03:53:00;;;;;;;2.40;1.77;;;;;;;;;;5092873;28;20032;-85
2022/10/24 03:55:27;;;;;;;0.85;0.65;;;;;;;;;;5088644;28;20032;-85
2022/10/24 03:57:52;;;;;;;1.23;1.13;;;;;;;;;;5092487;28;20032;-84
2022/10/24 04:00:18;;;;;;;1.70;1.30;;;;;;;;;;5092567;28;20028;-86
2022/10/24 04:02:45;;;;;;;1.75;1.05;;;;;;;;;;5091955;28;20039;-86
2022/10/24 04:05:11;;;;;;;2.10;1.58;;;;;;;;;;5092377;28;20098;-86
2022/10/24 04:07:37;;;;;;;3.53;1.25;;;;;;;;;;5091237;28;20367;-87
2022/10/24 04:10:03;;;;;;;1.58;1.05;;;;;;;;;;5091486;28;20103;-85
2022/10/24 04:12:29;;;;;;;1.80;1.63;;;;;;;;;;5092497;28;20036;-85
2022/10/24 04:14:54;;;;;;;2.10;1.08;;;;;;;;;;5091989;28;20024;-85
2022/10/24 04:17:20;;;;;;;3.50;1.42;;;;;;;;;;5090466;28;20031;-85
2022/10/24 04:19:45;;;;;;;5.78;1.92;;;;;;;;;;5090287;28;20067;-86
2022/10/24 04:22:11;;;;;;;1.70;1.27;;;;;;;;;;5092328;28;20040;-86
2022/10/24 04:24:38;;;;;;;1.23;0.65;;;;;;;;;;5092175;28;20051;-86
2022/10/24 04:27:05;;;;;;;1.85;1.33;;;;;;;;;;5092283;28;20027;-86
2022/10/24 04:29:33;;;;;;;1.02;0.63;;;;;;;;;;5087222;28;20498;-84
2022/10/24 04:31:59;;;;;;;2.60;1.23;;;;;;;;;;5092043;28;20028;-85
2022/10/24 04:34:24;;;;;;;2.70;0.95;;;;;;;;;;5092238;28;20073;-84
2022/10/24 04:36:50;;;;;;;1.85;1.05;;;;;;;;;;5092085;28;20079;-86
2022/10/24 04:39:15;;;;;;;2.50;1.25;;;;;;;;;;5092380;28;20020;-85
2022/10/24 04:41:41;;;;;;;1.30;1.20;;;;;;;;;;5092003;28;20499;-85
2022/10/24 04:44:06;;;;;;;0.95;0.73;;;;;;;;;;5092080;28;20036;-86
2022/10/24 04:46:32;;;;;;;2.45;1.08;;;;;;;;;;5087908;28;20020;-85
2022/10/24 04:48:57;;;;;;;1.02;0.77;;;;;;;;;;5089691;28;20028;-86
2022/10/24 04:51:23;;;;;;;1.77;1.33;;;;;;;;;;5092234;28;20043;-84
2022/10/24 04:53:49;;;;;;;3.35;1.92;;;;;;;;;;5091011;28;20024;-84
2022/10/24 04:56:15;;;;;;;4.35;1.48;;;;;;;;;;5090299;28;20035;-84
2022/10/24 04:58:40;;;;;;;1.42;1.10;;;;;;;;;;5091948;28;20464;-85
2022/10/24 05:01:06;;;;;;;2.00;0.77;;;;;;;;;;5090472;28;20039;-85
2022/10/24 05:03:31;;;;;;;1.95;1.27;;;;;;;;;;5090776;28;20035;-85
2022/10/24 05:05:57;;;;;;;3.25;0.88;;;;;;;;;;5090612;28;20464;-85
2022/10/24 05:08:22;;;;;;;0.80;0.70;;;;;;;;;;5091154;28;20020;-84
2022/10/24 05:10:47;;;;;;;1.95;1.20;;;;;;;;;;5087049;28;20048;-84
2022/10/24 05:13:13;;;;;;;1.52;1.35;;;;;;;;;;5091742;28;20142;-85
2022/10/24 05:15:38;;;;;;;2.60;0.80;;;;;;;;;;5090089;28;20023;-85
2022/10/24 05:18:04;;;;;;;1.38;1.00;;;;;;;;;;5091618;28;20028;-84
2022/10/24 05:20:29;;;;;;;1.52;0.88;;;;;;;;;;5090473;28;20373;-85
2022/10/24 05:22:55;;;;;;;2.70;1.25;;;;;;;;;;5091936;28;20048;-85
2022/10/24 05:25:21;;;;;;;0.77;0.75;;;;;;;;;;5091566;28;20035;-85
2022/10/24 05:27:46;;;;;;;1.35;1.10;;;;;;;;;;5092372;28;20043;-83
2022/10/24 05:30:12;;;;;;;2.58;1.33;;;;;;;;;;5092256;28;20020;-85
2022/10/24 05:32:38;;;;;;;4.72;1.77;;;;;;;;;;5094633;28;20023;-84
2022/10/24 05:35:03;;;;;;;1.55;1.13;;;;;;;;;;5094695;28;20024;-84
2022/10/24 05:37:29;;;;;;;1.13;0.90;;;;;;;;;;5093529;28;20035;-84
2022/10/24 05:39:54;;;;;;;1.13;1.02;;;;;;;;;;5094916;28;20441;-85
2022/10/24 05:42:19;;;;;;;1.30;0.95;;;;;;;;;;5094376;28;20028;-85
2022/10/24 05:44:45;;;;;;;1.90;0.90;;;;;;;;;;5095276;28;20051;-84
2022/10/24 05:47:10;;;;;;;2.58;1.27;;;;;;;;;;5093924;28;20077;-84
2022/10/24 05:49:36;;;;;;;1.58;1.15;;;;;;;;;;5094995;28;20024;-84
2022/10/24 05:52:01;;;;;;;1.30;1.02;;;;;;;;;;5093803;28;20519;-85
2022/10/24 05:54:27;;;;;;;0.75;0.70;;;;;;;;;;5094749;28;20372;-82
2022/10/24 05:56:52;;;;;;;0.65;0.65;;;;;;;;;;5091364;28;20028;-83
2022/10/24 05:59:17;;;;;;;1.73;0.75;;;;;;;;;;5091827;28;20460;-82
2022/10/24 06:01:43;;;;;;;1.52;1.05;;;;;;;;;;5090543;28;20039;-83
2022/10/24 06:04:08;;;;;;;7.55;3.40;;;;;;;;;;5088673;28;20427;-82
2022/10/24 06:06:38;;;;;;;10.02;2.78;;;;;;;;;;5090363;28;20028;-83
2022/10/24 06:09:03;;;;;;;6.63;4.53;;;;;;;;;;5091375;28;20057;-82
2022/10/24 06:11:29;;;;;;;5.28;3.28;;;;;;;;;;5092692;28;20103;-82
2022/10/24 06:13:54;;;;;;;7.45;3.53;;;;;;;;;;5091022;28;20026;-85
2022/10/24 06:16:20;;;;;;;5.10;2.92;;;;;;;;;;5093007;28;20028;-83
2022/10/24 06:18:45;;;;;;;4.68;3.22;;;;;;;;;;5087918;28;20124;-83
2022/10/24 06:21:29;;;;;;;4.38;2.58;;;;;;;;;;5092556;28;20758;-83
2022/10/24 06:58:47;;;;;;;6.32;3.38;;;;;;;;;;4919916;29;20452;-84
2022/10/24 07:01:21;;;;;;;7.90;3.42;;;;;;;;;;4895850;29;20044;-83
2022/10/24 07:04:08;;;;;;;36.40;21.73;;;;;;;;;;4918569;29;20112;-84
2022/10/24 07:06:59;;;;;;;9.90;6.43;;;;;;;;;;5025906;28;20047;-83
2022/10/24 07:13:15;;;;;;;5.35;3.95;;;;;;;;;;5046749;28;20058;-84
2022/10/24 07:16:33;;;;;;;;;;;;;;;;;;;;;
2022/10/24 07:20:01;;;;;;;;;;;;;;;;;;;;;
2022/10/24 07:23:08;;;;;;;7.70;2.92;;;;;;;;;;5047482;28;20044;-86
2022/10/24 07:26:09;;;;;;;6.68;2.85;;;;;;;;;;5065026;28;20364;-83
2022/10/24 07:28:57;;;;;;;5.68;3.38;;;;;;;;;;5047255;28;20025;-86
2022/10/24 07:31:35;;;;;;;5.45;3.05;;;;;;;;;;5053904;28;20549;-85
2022/10/24 07:34:05;;;;;;;5.18;2.90;;;;;;;;;;5051917;28;20500;-84
2022/10/24 07:36:31;;;;;;;5.60;3.20;;;;;;;;;;5053370;28;20028;-85
2022/10/24 07:38:58;;;;;;;2.72;2.25;;;;;;;;;;5050000;28;20048;-84
2022/10/24 07:41:25;;;;;;;4.38;3.05;;;;;;;;;;5071595;28;20024;-84
2022/10/24 07:43:51;;;;;;;8.45;3.38;;;;;;;;;;5073295;28;20036;-82
2022/10/24 07:46:17;;;;;;;4.63;2.97;;;;;;;;;;5073020;28;20488;-85
2022/10/24 07:48:43;;;;;;;3.80;2.63;;;;;;;;;;5070629;28;20055;-86
2022/10/24 07:51:13;;;;;;;5.00;2.55;;;;;;;;;;5071502;28;20025;-86
2022/10/24 07:53:39;;;;;;;3.47;2.33;;;;;;;;;;5071153;28;20086;-86
2022/10/24 07:56:09;;;;;;;7.95;2.80;;;;;;;;;;5073703;28;20488;-84
2022/10/24 07:58:35;;;;;;;5.43;3.38;;;;;;;;;;5071834;28;20029;-86
2022/10/24 08:01:05;;;;;;;4.15;2.85;;;;;;;;;;5071016;28;20046;-84
2022/10/24 08:03:31;;;;;;;6.28;3.13;;;;;;;;;;5071125;28;20056;-86
2022/10/24 08:05:56;;;;;;;4.45;2.90;;;;;;;;;;5072601;28;20524;-85
2022/10/24 08:08:22;;;;;;;6.32;2.17;;;;;;;;;;5072144;28;20103;-88
2022/10/24 08:10:48;;;;;;;3.97;2.28;;;;;;;;;;5071543;28;20048;-87
2022/10/24 08:13:13;;;;;;;3.60;2.38;;;;;;;;;;5070891;28;20182;-86
2022/10/24 08:15:39;;;;;;;3.92;2.38;;;;;;;;;;5070206;28;20096;-86
2022/10/24 08:18:04;;;;;;;3.53;2.13;;;;;;;;;;5069225;28;20559;-85
2022/10/24 08:20:30;;;;;;;3.75;2.60;;;;;;;;;;5067319;28;20046;-86
2022/10/24 08:22:55;;;;;;;3.92;2.40;;;;;;;;;;5081388;28;20126;-85
2022/10/24 08:25:21;;;;;;;4.75;2.60;;;;;;;;;;5090379;28;20062;-87
2022/10/24 08:27:46;;;;;;;4.40;2.83;;;;;;;;;;5091237;28;20055;-87
2022/10/24 08:30:12;;;;;;;4.75;2.60;;;;;;;;;;5092634;28;20131;-83
2022/10/24 08:32:38;;;;;;;5.80;2.55;;;;;;;;;;5092277;28;20035;-88
2022/10/24 08:35:05;;;;;;;2.80;2.03;;;;;;;;;;5093306;28;20107;-86
2022/10/24 08:37:30;;;;;;;5.65;1.88;;;;;;;;;;5086840;28;20063;-86
2022/10/24 08:39:56;;;;;;;7.22;2.90;;;;;;;;;;5090897;28;20421;-88
2022/10/24 08:42:23;;;;;;;13.13;3.42;;;;;;;;;;5091443;28;20499;-86
2022/10/24 08:44:50;;;;;;;6.68;3.78;;;;;;;;;;5088925;28;20064;-85
2022/10/24 08:47:35;;;;;;;5.13;3.90;;;;;;;;;;5087947;28;20048;-86
2022/10/24 08:50:26;;;;;;;6.18;3.88;;;;;;;;;;5089485;28;20371;-84
2022/10/24 08:53:03;;;;;;;8.25;4.05;;;;;;;;;;5089570;28;20101;-88
2022/10/24 08:55:52;;;;;;;4.45;2.90;;;;;;;;;;5087301;28;20030;-86
2022/10/24 08:58:24;;;;;;;6.15;3.17;;;;;;;;;;5090310;28;20434;-86
2022/10/24 09:00:51;;;;;;;5.68;2.67;;;;;;;;;;5089247;28;20028;-87
2022/10/24 09:03:39;;;;;;;3.70;2.42;;;;;;;;;;5089628;28;20443;-86
2022/10/24 09:06:30;;;;;;;4.28;2.50;;;;;;;;;;5089415;28;20032;-85
2022/10/24 09:09:03;;;;;;;8.98;4.32;;;;;;;;;;5085549;28;21069;-87
2022/10/24 09:11:52;;;;;;;4.75;3.10;;;;;;;;;;5090412;28;20107;-86
2022/10/24 09:14:26;;;;;;;5.18;2.53;;;;;;;;;;5091427;28;20024;-87
2022/10/24 09:17:08;;;;;;;13.23;2.80;;;;;;;;;;5090798;28;20024;-85
2022/10/24 09:19:34;;;;;;;6.13;2.65;;;;;;;;;;5084910;28;20383;-84
2022/10/24 09:22:01;;;;;;;4.43;2.50;;;;;;;;;;5089672;28;20051;-86
2022/10/24 09:24:44;;;;;;;6.40;2.08;;;;;;;;;;5092595;28;20451;-87
2022/10/24 09:27:15;;;;;;;8.88;2.50;;;;;;;;;;5090327;28;20030;-87
2022/10/24 09:29:41;;;;;;;3.53;2.42;;;;;;;;;;5090314;28;20107;-86
2022/10/24 09:32:14;;;;;;;5.55;2.85;;;;;;;;;;5091718;28;20028;-88
2022/10/24 09:34:39;;;;;;;3.75;2.50;;;;;;;;;;5091403;28;20059;-86
2022/10/24 09:37:05;;;;;;;7.25;2.53;;;;;;;;;;5086276;28;20055;-86
2022/10/24 09:39:33;;;;;;;10.95;3.25;;;;;;;;;;5091343;28;20024;-86
2022/10/24 09:41:59;;;;;;;3.28;2.15;;;;;;;;;;5090441;28;20446;-87
2022/10/24 09:44:37;;;;;;;2.83;2.33;;;;;;;;;;5090479;28;20032;-86
2022/10/24 09:47:08;;;;;;;4.45;2.58;;;;;;;;;;5088789;28;20016;-87
2022/10/24 09:49:37;;;;;;;5.35;2.75;;;;;;;;;;5091446;28;20059;-89
2022/10/24 09:52:19;;;;;;;3.45;2.20;;;;;;;;;;5091466;28;20081;-88
2022/10/24 09:54:46;;;;;;;6.45;2.45;;;;;;;;;;5086473;28;20533;-85
2022/10/24 09:57:13;;;;;;;3.55;2.17;;;;;;;;;;5087488;28;20540;-88
2022/10/24 09:59:43;;;;;;;2.60;1.80;;;;;;;;;;5089221;28;20082;-86
2022/10/24 10:02:27;;;;;;;3.00;1.70;;;;;;;;;;5091689;28;20028;-86
2022/10/24 10:05:02;;;;;;;2.83;1.77;;;;;;;;;;5090720;28;20373;-87
2022/10/24 10:07:34;;;;;;;4.32;2.00;;;;;;;;;;5086978;28;20027;-86
2022/10/24 10:10:03;;;;;;;3.75;1.90;;;;;;;;;;5086790;28;20036;-86
2022/10/24 10:12:35;;;;;;;3.05;1.77;;;;;;;;;;5091468;28;20032;-87
2022/10/24 10:15:20;;;;;;;1.50;1.25;;;;;;;;;;5092851;28;20534;-85
2022/10/24 10:17:50;;;;;;;3.30;2.05;;;;;;;;;;5094336;28;20468;-86
2022/10/24 10:20:29;;;;;;;4.95;1.65;;;;;;;;;;5093321;28;20031;-86
2022/10/24 10:22:55;;;;;;;5.25;1.83;;;;;;;;;;5093003;28;20071;-87
2022/10/24 10:25:29;;;;;;;3.85;1.45;;;;;;;;;;5093462;28;20032;-88
2022/10/24 10:27:54;;;;;;;3.10;1.23;;;;;;;;;;5091626;28;20024;-88
2022/10/24 10:30:20;;;;;;;2.70;1.63;;;;;;;;;;5093162;28;20429;-88
2022/10/24 10:33:21;;;;;;;2.35;1.67;;;;;;;;;;5094883;28;20023;-86
2022/10/24 10:36:01;;;;;;;2.33;1.58;;;;;;;;;;5094570;28;20550;-86
2022/10/24 10:38:50;;;;;;;2.28;1.63;;;;;;;;;;5093118;28;20107;-87
2022/10/24 10:41:24;;;;;;;1.60;1.13;;;;;;;;;;5091251;28;20475;-88
2022/10/24 10:44:18;;;;;;;3.13;1.63;;;;;;;;;;5089504;28;20085;-87
2022/10/24 10:46:57;;;;;;;3.35;1.45;;;;;;;;;;5090897;28;20028;-87
2022/10/24 10:49:38;;;;;;;1.83;1.00;;;;;;;;;;5091718;28;20031;-86
2022/10/24 10:52:15;;;;;;;2.40;1.15;;;;;;;;;;5092167;28;20028;-88
2022/10/24 10:54:59;;;;;;;2.17;1.48;;;;;;;;;;5092303;28;20389;-87
2022/10/24 10:57:43;;;;;;;1.35;1.17;;;;;;;;;;5092264;28;21608;-86
2022/10/24 11:00:14;;;;;;;2.78;1.88;;;;;;;;;;5091949;28;20077;-88
2022/10/24 11:03:04;;;;;;;2.30;1.27;;;;;;;;;;5093609;28;20024;-86
2022/10/24 11:05:39;;;;;;;2.35;1.33;;;;;;;;;;5093975;28;20027;-88
2022/10/24 11:08:31;;;;;;;2.95;1.67;;;;;;;;;;5092388;28;20388;-87
2022/10/24 11:11:02;;;;;;;2.75;1.15;;;;;;;;;;5092252;28;20244;-87
2022/10/24 11:13:42;;;;;;;3.70;1.42;;;;;;;;;;5092222;28;20027;-88
2022/10/24 11:16:13;;;;;;;1.73;1.20;;;;;;;;;;5093177;28;20031;-86
2022/10/24 11:18:46;;;;;;;2.38;1.30;;;;;;;;;;5092430;28;20101;-87
2022/10/24 11:21:13;;;;;;;2.33;1.48;;;;;;;;;;5093782;28;20028;-86
2022/10/24 11:24:17;;;;;;;4.72;2.00;;;;;;;;;;5093378;28;20052;-86
2022/10/24 11:27:06;;;;;;;1.63;1.10;;;;;;;;;;5088256;28;20048;-87
2022/10/24 11:29:44;;;;;;;3.33;1.90;;;;;;;;;;5089135;28;20024;-86
2022/10/24 11:32:26;;;;;;;2.95;1.40;;;;;;;;;;5090484;28;20020;-87
2022/10/24 11:35:06;;;;;;;1.88;1.23;;;;;;;;;;5089545;28;20031;-87
2022/10/24 11:37:36;;;;;;;4.57;1.58;;;;;;;;;;5089586;28;20169;-88
2022/10/24 11:40:05;;;;;;;2.17;1.65;;;;;;;;;;5093193;28;20028;-87
2022/10/24 11:42:38;;;;;;;4.60;1.73;;;;;;;;;;5093163;28;20032;-87
2022/10/24 11:45:09;;;;;;;2.50;1.42;;;;;;;;;;5090243;28;20027;-87
2022/10/24 11:47:57;;;;;;;2.30;1.27;;;;;;;;;;5092825;28;20028;-87
2022/10/24 11:50:28;;;;;;;2.95;1.10;;;;;;;;;;5090317;28;20468;-89
2022/10/24 11:53:03;;;;;;;2.80;1.40;;;;;;;;;;5091815;28;20107;-86
2022/10/24 11:55:37;;;;;;;4.03;1.20;;;;;;;;;;5092442;28;20460;-86
2022/10/24 11:58:07;;;;;;;3.53;1.60;;;;;;;;;;5089803;28;20040;-86
2022/10/24 12:00:55;;;;;;;2.00;1.38;;;;;;;;;;5091029;28;20115;-87
2022/10/24 12:03:41;;;;;;;2.92;1.42;;;;;;;;;;5091545;28;20020;-88
2022/10/24 12:06:24;;;;;;;5.47;1.80;;;;;;;;;;5091240;28;20130;-87
2022/10/24 12:09:07;;;;;;;2.72;1.50;;;;;;;;;;5087300;28;20039;-86
2022/10/24 12:11:51;;;;;;;1.67;1.23;;;;;;;;;;5091456;28;20020;-87
2022/10/24 12:14:31;;;;;;;1.80;1.35;;;;;;;;;;5092897;28;20027;-87
2022/10/24 12:17:21;;;;;;;1.63;0.93;;;;;;;;;;5089468;28;20085;-87
2022/10/24 12:19:49;;;;;;;10.43;1.70;;;;;;;;;;5091714;28;20055;-86
2022/10/24 12:22:22;;;;;;;4.95;2.00;;;;;;;;;;5092060;28;20044;-90
2022/10/24 12:25:00;;;;;;;3.10;1.50;;;;;;;;;;5091084;28;20540;-86
2022/10/24 12:27:37;;;;;;;2.70;1.60;;;;;;;;;;5090418;28;20364;-86
2022/10/24 12:30:23;;;;;;;3.20;1.90;;;;;;;;;;5092155;28;20023;-87
2022/10/24 12:33:05;;;;;;;2.47;1.65;;;;;;;;;;5087742;28;20032;-87
2022/10/24 12:35:33;;;;;;;4.32;1.77;;;;;;;;;;5090829;28;20036;-86
2022/10/24 12:38:13;;;;;;;3.78;1.63;;;;;;;;;;5091673;28;20032;-88
2022/10/24 12:40:44;;;;;;;;;;;;;;;;;;5089551;28;20028;-86
2022/10/24 12:43:27;;;;;;;3.03;1.27;;;;;;;;;;5090735;28;20425;-87
2022/10/24 12:45:53;;;;;;;5.30;1.45;;;;;;;;;;5093420;28;20047;-87
2022/10/24 12:48:34;;;;;;;3.92;1.83;;;;;;;;;;5090938;28;20451;-88
2022/10/24 12:51:00;;;;;;;2.67;2.08;;;;;;;;;;5087892;28;20543;-88
2022/10/24 12:53:35;;;;;;;2.65;1.75;;;;;;;;;;5092250;28;20028;-89
2022/10/24 12:56:07;;;;;;;2.55;1.80;;;;;;;;;;5086840;28;20020;-88
2022/10/24 12:58:36;;;;;;;5.80;1.60;;;;;;;;;;5089814;28;20468;-88
2022/10/24 13:01:24;;;;;;;3.88;2.13;;;;;;;;;;5091808;28;20035;-90
2022/10/24 13:03:51;;;;;;;6.40;2.22;;;;;;;;;;5088986;28;20422;-88
2022/10/24 13:06:48;;;;;;;4.15;1.48;;;;;;;;;;5092066;28;20047;-88
2022/10/24 13:09:48;;;;;;;2.80;1.50;;;;;;;;;;5091417;28;20024;-88
2022/10/24 13:12:45;;;;;;;3.92;2.05;;;;;;;;;;5087404;28;20047;-87
2022/10/24 13:15:50;;;;;;;1.77;1.33;;;;;;;;;;5090902;28;20035;-87
2022/10/24 13:18:30;;;;;;;3.15;1.55;;;;;;;;;;5048374;28;20029;-87
2022/10/24 13:21:23;;;;;;;2.20;1.20;;;;;;;;;;5088528;28;20044;-87
2022/10/24 13:23:49;;;;;;;5.00;1.60;;;;;;;;;;5090808;28;20067;-86
2022/10/24 13:26:38;;;;;;;3.17;1.50;;;;;;;;;;5091647;28;20024;-86
2022/10/24 13:29:05;;;;;;;4.50;1.70;;;;;;;;;;5090666;28;20020;-86
2022/10/24 13:31:33;;;;;;;4.75;1.73;;;;;;;;;;5091122;28;20102;-87
2022/10/24 13:34:20;;;;;;;2.13;1.48;;;;;;;;;;5091849;28;20514;-87
2022/10/24 13:36:51;;;;;;;3.50;1.13;;;;;;;;;;5089198;28;20402;-86
2022/10/24 13:39:24;;;;;;;3.50;1.20;;;;;;;;;;5088845;28;20639;-87
2022/10/24 13:41:57;;;;;;;2.95;1.33;;;;;;;;;;5090894;28;20074;-85
2022/10/24 13:44:25;;;;;;;5.57;1.77;;;;;;;;;;5089487;28;20024;-87
2022/10/24 13:46:57;;;;;;;2.05;1.30;;;;;;;;;;5090141;28;20028;-86
2022/10/24 13:49:53;;;;;;;4.47;1.70;;;;;;;;;;5091218;28;20028;-86
2022/10/24 13:52:27;;;;;;;1.92;1.30;;;;;;;;;;5094108;28;20094;-86
2022/10/24 13:55:01;;;;;;;7.40;1.75;;;;;;;;;;5092450;28;20035;-86
2022/10/24 13:57:36;;;;;;;3.22;1.70;;;;;;;;;;5093262;28;20020;-86
2022/10/24 14:00:17;;;;;;;6.32;1.45;;;;;;;;;;5094871;28;20056;-84
2022/10/24 14:02:43;;;;;;;3.03;1.52;;;;;;;;;;5125673;27;20035;-86
2022/10/24 14:05:24;;;;;;;2.63;1.38;;;;;;;;;;5095330;28;20059;-86
2022/10/24 14:07:50;;;;;;;3.45;2.05;;;;;;;;;;5092094;28;20024;-85
2022/10/24 14:10:18;;;;;;;4.85;2.13;;;;;;;;;;5091073;28;20349;-87
2022/10/24 14:12:45;;;;;;;2.53;1.33;;;;;;;;;;5092150;28;20024;-87
2022/10/24 14:15:19;;;;;;;2.28;1.52;;;;;;;;;;5089658;28;20529;-85
2022/10/24 14:17:58;;;;;;;2.20;1.10;;;;;;;;;;5091195;28;20060;-86
2022/10/24 14:20:32;;;;;;;3.05;1.50;;;;;;;;;;5090916;28;20019;-85
2022/10/24 14:22:57;;;;;;;2.17;1.65;;;;;;;;;;5094562;28;20052;-86
2022/10/24 14:25:36;;;;;;;3.22;1.33;;;;;;;;;;5094966;28;20024;-86
2022/10/24 14:28:24;;;;;;;1.73;1.30;;;;;;;;;;5087945;28;20036;-85
2022/10/24 14:30:55;;;;;;;3.00;1.67;;;;;;;;;;5094673;28;20016;-87
2022/10/24 14:33:27;;;;;;;3.53;1.95;;;;;;;;;;5093473;28;20028;-86
2022/10/24 14:35:55;;;;;;;4.55;1.58;;;;;;;;;;5093121;28;20039;-85
2022/10/24 14:38:21;;;;;;;7.97;2.50;;;;;;;;;;5094300;28;20498;-85
2022/10/24 14:40:48;;;;;;;2.25;1.67;;;;;;;;;;5091791;28;20038;-86
2022/10/24 14:43:20;;;;;;;2.58;1.35;;;;;;;;;;5093402;28;20020;-86
2022/10/24 14:46:13;;;;;;;6.82;2.28;;;;;;;;;;5094414;28;20111;-85
2022/10/24 14:48:41;;;;;;;3.95;1.88;;;;;;;;;;5094104;28;20062;-86
2022/10/24 14:51:10;;;;;;;3.08;2.13;;;;;;;;;;5094234;28;20028;-86
2022/10/24 14:53:38;;;;;;;2.15;1.55;;;;;;;;;;5094274;28;20603;-86
2022/10/24 14:56:22;;;;;;;5.22;2.78;;;;;;;;;;5094008;28;20028;-86
2022/10/24 14:58:51;;;;;;;4.07;1.98;;;;;;;;;;5093208;28;20048;-89
2022/10/24 15:01:18;;;;;;;9.57;2.05;;;;;;;;;;5091359;28;20112;-81
2022/10/24 15:04:26;;;;;;;4.80;1.85;;;;;;;;;;5087428;28;20073;-81
2022/10/24 15:06:55;;;;;;;3.75;1.95;;;;;;;;;;5088005;28;20107;-81
2022/10/24 15:09:21;;;;;;;3.33;1.88;;;;;;;;;;5083353;28;20046;-80
2022/10/24 15:11:59;;;;;;;2.50;1.20;;;;;;;;;;5086767;28;20035;-81
2022/10/24 15:14:53;;;;;;;2.05;1.30;;;;;;;;;;5084710;28;20020;-81
2022/10/24 15:17:28;;;;;;;1.38;1.15;;;;;;;;;;5086326;28;20431;-81
2022/10/24 15:19:59;;;;;;;2.13;1.88;;;;;;;;;;5091711;28;20154;-83
2022/10/24 15:22:35;;;;;;;4.90;1.60;;;;;;;;;;5092791;28;20540;-85
2022/10/24 15:25:23;;;;;;;3.80;1.55;;;;;;;;;;5093724;28;20027;-85
2022/10/24 15:27:53;;;;;;;4.47;1.70;;;;;;;;;;5093255;28;20031;-85
2022/10/24 15:30:21;;;;;;;2.88;1.90;;;;;;;;;;5090385;28;20065;-85
2022/10/24 15:32:49;;;;;;;5.03;2.38;;;;;;;;;;5091288;28;20177;-85
2022/10/24 15:35:15;;;;;;;3.60;2.13;;;;;;;;;;5091422;28;20043;-86
2022/10/24 15:37:56;;;;;;;3.05;2.00;;;;;;;;;;5091408;28;20032;-86
2022/10/24 15:40:26;;;;;;;9.18;2.78;;;;;;;;;;5092696;28;20027;-87
2022/10/24 15:42:52;;;;;;;3.45;1.30;;;;;;;;;;5087840;28;20027;-86
2022/10/24 15:45:18;;;;;;;3.58;1.77;;;;;;;;;;5092206;28;20028;-85
2022/10/24 15:47:43;;;;;;;6.10;2.40;;;;;;;;;;5091519;28;20039;-87
2022/10/24 15:50:14;;;;;;;2.28;1.17;;;;;;;;;;5090670;28;20040;-84
2022/10/24 15:52:39;;;;;;;2.03;1.70;;;;;;;;;;5089945;28;20024;-86
2022/10/24 15:55:05;;;;;;;7.30;1.52;;;;;;;;;;5092603;28;20035;-85